Portada
METAR-TAF:

METAR-TAF

Aeroports :

Aeroport Santos Dumont

Rio de Janeiro, Rio de Janeiro, Brasil

latitud: 22-54S, longitud: 043-10W, altitud: 3 m

Observació

L'informe es va fer fa 21 minuts, a les 01:00 UTC
Vent 5 kt del Nord-Oest
Temperatura 25°C
Humitat 69%
Pressió 1013 hPa
Visibilitat 10 km o més
sense núvols per sota de 1500 mi sense presència de cumulonimbus.

METAR: SBRJ 130100Z 31005KT CAVOK 25/19 Q1013

Hora: 22:21 (01:21 UTC)

Pronòstic

L'informe es va fer fa 10 hores i 21 minuts, a les 15:00 UTC
Pronòstic vàlid del 12 a les 18 UTC al 13 a les 06 UTC
Vent 5 kt del Sud
Visibilitat 10 km o més
sense núvols per sota de 1500 mi sense presència de cumulonimbus.
Evolucionant progressivament
l' 13 a les 00 UTC al 13 a les 02 UTC
Vent 4 kt del Nord

TAF: SBRJ 121500Z 1218/1306 17005KT CAVOK TX32/1218Z TN21/1306Z BECMG 1300/1302 35004KT RMK PEL

Observacions i pronòstics meteorològics de més de 4000 aeroports (METAR i TAF).

Les estacions disponibles són els punts grocs i vermells al mapa.

Posi el ratolí al punt desitjat per veure el nom de l'estació.

Feu clic per veure les observacions i els pronòstics meteorològics.

Per canviar el mapa: feu clic els botons verds amb una creu de color negre per apropar; al botó verd amb un guió per allunyar la imatge; o en les fletxes verdes per a mapes adjacents.


METAR-TAF: